sensor_id;sensor_type;location;lat;lon;timestamp;temperature;humidity
25973;DHT22;13765;51.166;4.466;2023-03-11T00:00:26;3.10;99.90
25973;DHT22;13765;51.166;4.466;2023-03-11T00:02:57;3.10;99.90
25973;DHT22;13765;51.166;4.466;2023-03-11T00:05:26;3.00;99.90
25973;DHT22;13765;51.166;4.466;2023-03-11T00:07:52;3.00;99.90
25973;DHT22;13765;51.166;4.466;2023-03-11T00:10:21;3.10;99.90
25973;DHT22;13765;51.166;4.466;2023-03-11T00:12:47;3.00;99.90
25973;DHT22;13765;51.166;4.466;2023-03-11T00:15:15;3.00;99.90
25973;DHT22;13765;51.166;4.466;2023-03-11T00:17:45;3.00;99.90
25973;DHT22;13765;51.166;4.466;2023-03-11T00:20:20;3.00;99.90
25973;DHT22;13765;51.166;4.466;2023-03-11T00:22:49;3.00;99.90
25973;DHT22;13765;51.166;4.466;2023-03-11T00:25:21;2.90;99.90
25973;DHT22;13765;51.166;4.466;2023-03-11T00:27:48;3.00;99.90
25973;DHT22;13765;51.166;4.466;2023-03-11T00:30:14;3.00;99.90
25973;DHT22;13765;51.166;4.466;2023-03-11T00:32:40;3.00;99.90
25973;DHT22;13765;51.166;4.466;2023-03-11T00:35:06;2.80;99.90
25973;DHT22;13765;51.166;4.466;2023-03-11T00:37:33;2.80;99.90
25973;DHT22;13765;51.166;4.466;2023-03-11T00:40:01;2.80;99.90
25973;DHT22;13765;51.166;4.466;2023-03-11T00:42:31;2.70;99.90
25973;DHT22;13765;51.166;4.466;2023-03-11T00:44:57;2.60;99.90
25973;DHT22;13765;51.166;4.466;2023-03-11T00:47:27;2.40;99.90
25973;DHT22;13765;51.166;4.466;2023-03-11T00:49:53;2.50;99.90
25973;DHT22;13765;51.166;4.466;2023-03-11T00:52:18;2.40;99.90
25973;DHT22;13765;51.166;4.466;2023-03-11T00:54:44;2.40;99.90
25973;DHT22;13765;51.166;4.466;2023-03-11T00:57:10;2.40;99.90
25973;DHT22;13765;51.166;4.466;2023-03-11T00:59:36;2.30;99.90
25973;DHT22;13765;51.166;4.466;2023-03-11T01:02:04;2.40;99.90
25973;DHT22;13765;51.166;4.466;2023-03-11T01:04:32;2.40;99.90
25973;DHT22;13765;51.166;4.466;2023-03-11T01:07:00;2.50;99.90
25973;DHT22;13765;51.166;4.466;2023-03-11T01:09:26;2.50;99.90
25973;DHT22;13765;51.166;4.466;2023-03-11T01:11:53;2.60;99.90
25973;DHT22;13765;51.166;4.466;2023-03-11T01:14:24;2.70;99.90
25973;DHT22;13765;51.166;4.466;2023-03-11T01:16:49;2.70;99.90
25973;DHT22;13765;51.166;4.466;2023-03-11T01:19:20;2.70;99.90
25973;DHT22;13765;51.166;4.466;2023-03-11T01:21:46;2.60;99.90
25973;DHT22;13765;51.166;4.466;2023-03-11T01:24:12;2.60;99.90
25973;DHT22;13765;51.166;4.466;2023-03-11T01:26:37;2.50;99.90
25973;DHT22;13765;51.166;4.466;2023-03-11T01:29:03;2.50;99.90
25973;DHT22;13765;51.166;4.466;2023-03-11T01:31:29;2.50;99.90
25973;DHT22;13765;51.166;4.466;2023-03-11T01:33:54;2.60;99.90
25973;DHT22;13765;51.166;4.466;2023-03-11T01:36:20;2.60;99.90
25973;DHT22;13765;51.166;4.466;2023-03-11T01:38:45;2.70;99.90
25973;DHT22;13765;51.166;4.466;2023-03-11T01:41:12;2.80;99.90
25973;DHT22;13765;51.166;4.466;2023-03-11T01:43:48;2.90;99.90
25973;DHT22;13765;51.166;4.466;2023-03-11T01:46:38;2.90;99.90
25973;DHT22;13765;51.166;4.466;2023-03-11T01:49:01;2.90;99.90
25973;DHT22;13765;51.166;4.466;2023-03-11T01:51:34;2.80;99.90
25973;DHT22;13765;51.166;4.466;2023-03-11T01:54:06;2.90;99.90
25973;DHT22;13765;51.166;4.466;2023-03-11T01:56:34;2.80;99.90
25973;DHT22;13765;51.166;4.466;2023-03-11T01:59:05;2.70;99.90
25973;DHT22;13765;51.166;4.466;2023-03-11T02:01:31;2.50;99.90
25973;DHT22;13765;51.166;4.466;2023-03-11T02:04:04;2.50;99.90
25973;DHT22;13765;51.166;4.466;2023-03-11T02:06:33;2.40;99.90
25973;DHT22;13765;51.166;4.466;2023-03-11T02:09:01;2.50;99.90
25973;DHT22;13765;51.166;4.466;2023-03-11T02:11:29;2.40;99.90
25973;DHT22;13765;51.166;4.466;2023-03-11T02:14:01;2.40;99.90
25973;DHT22;13765;51.166;4.466;2023-03-11T02:16:28;2.40;99.90
25973;DHT22;13765;51.166;4.466;2023-03-11T02:18:55;2.50;99.90
25973;DHT22;13765;51.166;4.466;2023-03-11T02:21:28;2.60;99.90
25973;DHT22;13765;51.166;4.466;2023-03-11T02:24:06;2.60;99.90
25973;DHT22;13765;51.166;4.466;2023-03-11T02:26:54;2.50;99.90
25973;DHT22;13765;51.166;4.466;2023-03-11T02:29:22;2.50;99.90
25973;DHT22;13765;51.166;4.466;2023-03-11T02:31:53;2.50;99.90
25973;DHT22;13765;51.166;4.466;2023-03-11T02:34:35;2.60;99.90
25973;DHT22;13765;51.166;4.466;2023-03-11T02:37:04;2.70;99.90
25973;DHT22;13765;51.166;4.466;2023-03-11T02:39:44;2.60;99.90
25973;DHT22;13765;51.166;4.466;2023-03-11T02:42:28;2.70;99.90
25973;DHT22;13765;51.166;4.466;2023-03-11T02:45:16;2.60;99.90
25973;DHT22;13765;51.166;4.466;2023-03-11T02:47:42;2.60;99.90
25973;DHT22;13765;51.166;4.466;2023-03-11T02:50:14;2.70;99.90
25973;DHT22;13765;51.166;4.466;2023-03-11T02:52:41;2.70;99.90
25973;DHT22;13765;51.166;4.466;2023-03-11T02:55:10;2.80;99.90
25973;DHT22;13765;51.166;4.466;2023-03-11T02:57:40;2.80;99.90
25973;DHT22;13765;51.166;4.466;2023-03-11T03:00:07;2.70;99.90
25973;DHT22;13765;51.166;4.466;2023-03-11T03:02:39;2.60;99.90
25973;DHT22;13765;51.166;4.466;2023-03-11T03:05:06;2.60;99.90
25973;DHT22;13765;51.166;4.466;2023-03-11T03:07:32;2.50;99.90
25973;DHT22;13765;51.166;4.466;2023-03-11T03:09:57;2.60;99.90
25973;DHT22;13765;51.166;4.466;2023-03-11T03:12:23;2.70;99.90
25973;DHT22;13765;51.166;4.466;2023-03-11T03:14:51;2.70;99.90
25973;DHT22;13765;51.166;4.466;2023-03-11T03:17:17;2.60;99.90
25973;DHT22;13765;51.166;4.466;2023-03-11T03:19:48;2.50;99.90
25973;DHT22;13765;51.166;4.466;2023-03-11T03:22:14;2.40;99.90
25973;DHT22;13765;51.166;4.466;2023-03-11T03:24:39;2.30;99.90
25973;DHT22;13765;51.166;4.466;2023-03-11T03:27:05;2.20;99.90
25973;DHT22;13765;51.166;4.466;2023-03-11T03:29:31;2.30;99.90
25973;DHT22;13765;51.166;4.466;2023-03-11T03:31:59;2.30;99.90
25973;DHT22;13765;51.166;4.466;2023-03-11T03:34:27;2.30;99.90
25973;DHT22;13765;51.166;4.466;2023-03-11T03:36:53;2.40;99.90
25973;DHT22;13765;51.166;4.466;2023-03-11T03:39:18;2.40;99.90
25973;DHT22;13765;51.166;4.466;2023-03-11T03:41:44;2.40;99.90
25973;DHT22;13765;51.166;4.466;2023-03-11T03:44:13;2.40;99.90
25973;DHT22;13765;51.166;4.466;2023-03-11T03:46:38;2.40;99.90
25973;DHT22;13765;51.166;4.466;2023-03-11T03:49:04;2.30;99.90
25973;DHT22;13765;51.166;4.466;2023-03-11T03:51:32;2.40;99.90
25973;DHT22;13765;51.166;4.466;2023-03-11T03:54:00;2.30;99.90
25973;DHT22;13765;51.166;4.466;2023-03-11T03:56:26;2.30;99.90
25973;DHT22;13765;51.166;4.466;2023-03-11T03:58:52;2.30;99.90
25973;DHT22;13765;51.166;4.466;2023-03-11T04:01:19;2.20;99.90
25973;DHT22;13765;51.166;4.466;2023-03-11T04:03:47;2.30;99.90
25973;DHT22;13765;51.166;4.466;2023-03-11T04:06:18;2.20;99.90
25973;DHT22;13765;51.166;4.466;2023-03-11T04:08:44;2.10;99.90
25973;DHT22;13765;51.166;4.466;2023-03-11T04:11:13;2.20;99.90
25973;DHT22;13765;51.166;4.466;2023-03-11T04:13:38;2.20;99.90
25973;DHT22;13765;51.166;4.466;2023-03-11T04:16:06;2.20;99.90
25973;DHT22;13765;51.166;4.466;2023-03-11T04:18:32;2.20;99.90
25973;DHT22;13765;51.166;4.466;2023-03-11T04:20:58;2.20;99.90
25973;DHT22;13765;51.166;4.466;2023-03-11T04:23:23;2.20;99.90
25973;DHT22;13765;51.166;4.466;2023-03-11T04:25:51;2.10;99.90
25973;DHT22;13765;51.166;4.466;2023-03-11T04:28:17;2.00;99.90
25973;DHT22;13765;51.166;4.466;2023-03-11T04:30:43;1.90;99.90
25973;DHT22;13765;51.166;4.466;2023-03-11T04:33:11;1.90;99.90
25973;DHT22;13765;51.166;4.466;2023-03-11T04:35:37;1.90;99.90
25973;DHT22;13765;51.166;4.466;2023-03-11T04:38:03;1.90;99.90
25973;DHT22;13765;51.166;4.466;2023-03-11T04:40:29;1.90;99.90
25973;DHT22;13765;51.166;4.466;2023-03-11T04:42:57;1.90;99.90
25973;DHT22;13765;51.166;4.466;2023-03-11T04:45:24;1.80;99.90
25973;DHT22;13765;51.166;4.466;2023-03-11T04:47:54;1.80;99.90
25973;DHT22;13765;51.166;4.466;2023-03-11T04:50:20;1.90;99.90
25973;DHT22;13765;51.166;4.466;2023-03-11T04:52:48;1.80;99.90
25973;DHT22;13765;51.166;4.466;2023-03-11T04:55:14;1.80;99.90
25973;DHT22;13765;51.166;4.466;2023-03-11T04:57:41;1.90;99.90
25973;DHT22;13765;51.166;4.466;2023-03-11T05:00:09;1.80;99.90
25973;DHT22;13765;51.166;4.466;2023-03-11T05:02:36;1.70;99.90
25973;DHT22;13765;51.166;4.466;2023-03-11T05:05:03;1.70;99.90
25973;DHT22;13765;51.166;4.466;2023-03-11T05:07:29;1.60;99.90
25973;DHT22;13765;51.166;4.466;2023-03-11T05:09:55;1.70;99.90
25973;DHT22;13765;51.166;4.466;2023-03-11T05:12:25;1.70;99.90
25973;DHT22;13765;51.166;4.466;2023-03-11T05:14:51;1.70;99.90
25973;DHT22;13765;51.166;4.466;2023-03-11T05:17:18;1.80;99.90
25973;DHT22;13765;51.166;4.466;2023-03-11T05:19:47;1.80;99.90
25973;DHT22;13765;51.166;4.466;2023-03-11T05:22:13;1.80;99.90
25973;DHT22;13765;51.166;4.466;2023-03-11T05:24:38;1.70;99.90
25973;DHT22;13765;51.166;4.466;2023-03-11T05:27:06;1.60;99.90
25973;DHT22;13765;51.166;4.466;2023-03-11T05:29:34;1.60;99.90
25973;DHT22;13765;51.166;4.466;2023-03-11T05:32:02;1.50;99.90
25973;DHT22;13765;51.166;4.466;2023-03-11T05:34:28;1.40;99.90
25973;DHT22;13765;51.166;4.466;2023-03-11T05:36:53;1.40;99.90
25973;DHT22;13765;51.166;4.466;2023-03-11T05:39:21;1.50;99.90
25973;DHT22;13765;51.166;4.466;2023-03-11T05:41:49;1.50;99.90
25973;DHT22;13765;51.166;4.466;2023-03-11T05:44:15;1.50;99.90
25973;DHT22;13765;51.166;4.466;2023-03-11T05:46:43;1.60;99.90
25973;DHT22;13765;51.166;4.466;2023-03-11T05:49:13;1.60;99.90
25973;DHT22;13765;51.166;4.466;2023-03-11T05:51:41;1.60;99.90
25973;DHT22;13765;51.166;4.466;2023-03-11T05:54:12;1.60;99.90
25973;DHT22;13765;51.166;4.466;2023-03-11T05:56:40;1.60;99.90
25973;DHT22;13765;51.166;4.466;2023-03-11T05:59:07;1.50;99.90
25973;DHT22;13765;51.166;4.466;2023-03-11T06:01:32;1.50;99.90
25973;DHT22;13765;51.166;4.466;2023-03-11T06:03:59;1.50;99.90
25973;DHT22;13765;51.166;4.466;2023-03-11T06:06:25;1.60;99.90
25973;DHT22;13765;51.166;4.466;2023-03-11T06:08:50;1.50;99.90
25973;DHT22;13765;51.166;4.466;2023-03-11T06:11:19;1.60;99.90
25973;DHT22;13765;51.166;4.466;2023-03-11T06:13:45;1.40;99.90
25973;DHT22;13765;51.166;4.466;2023-03-11T06:16:11;1.40;99.90
25973;DHT22;13765;51.166;4.466;2023-03-11T06:18:37;1.30;99.90
25973;DHT22;13765;51.166;4.466;2023-03-11T06:21:03;1.20;99.90
25973;DHT22;13765;51.166;4.466;2023-03-11T06:23:29;1.20;99.90
25973;DHT22;13765;51.166;4.466;2023-03-11T06:26:02;1.30;99.90
25973;DHT22;13765;51.166;4.466;2023-03-11T06:28:31;1.40;99.90
25973;DHT22;13765;51.166;4.466;2023-03-11T06:31:09;1.40;99.90
25973;DHT22;13765;51.166;4.466;2023-03-11T06:33:37;1.50;99.90
25973;DHT22;13765;51.166;4.466;2023-03-11T06:36:04;1.50;99.90
25973;DHT22;13765;51.166;4.466;2023-03-11T06:38:30;1.50;99.90
25973;DHT22;13765;51.166;4.466;2023-03-11T06:41:01;1.50;99.90
25973;DHT22;13765;51.166;4.466;2023-03-11T06:43:33;1.50;99.90
25973;DHT22;13765;51.166;4.466;2023-03-11T06:46:08;1.60;99.90
25973;DHT22;13765;51.166;4.466;2023-03-11T06:48:36;1.60;99.90
25973;DHT22;13765;51.166;4.466;2023-03-11T06:51:04;1.60;99.90
25973;DHT22;13765;51.166;4.466;2023-03-11T06:53:33;1.70;99.90
25973;DHT22;13765;51.166;4.466;2023-03-11T06:56:02;1.70;99.90
25973;DHT22;13765;51.166;4.466;2023-03-11T06:58:32;1.80;99.90
25973;DHT22;13765;51.166;4.466;2023-03-11T07:01:03;1.80;99.90
25973;DHT22;13765;51.166;4.466;2023-03-11T07:03:32;1.80;99.90
25973;DHT22;13765;51.166;4.466;2023-03-11T07:05:58;1.90;99.90
25973;DHT22;13765;51.166;4.466;2023-03-11T07:08:24;1.80;99.90
25973;DHT22;13765;51.166;4.466;2023-03-11T07:11:13;2.00;99.90
25973;DHT22;13765;51.166;4.466;2023-03-11T07:13:41;2.00;99.90
25973;DHT22;13765;51.166;4.466;2023-03-11T07:16:13;2.10;99.90
25973;DHT22;13765;51.166;4.466;2023-03-11T07:18:41;2.10;99.90
25973;DHT22;13765;51.166;4.466;2023-03-11T07:21:11;2.00;99.90
25973;DHT22;13765;51.166;4.466;2023-03-11T07:23:38;2.00;99.90
25973;DHT22;13765;51.166;4.466;2023-03-11T07:26:04;2.10;99.90
25973;DHT22;13765;51.166;4.466;2023-03-11T07:28:31;2.20;99.90
25973;DHT22;13765;51.166;4.466;2023-03-11T07:30:57;2.30;99.90
25973;DHT22;13765;51.166;4.466;2023-03-11T07:33:27;2.30;99.90
25973;DHT22;13765;51.166;4.466;2023-03-11T07:35:56;2.30;99.90
25973;DHT22;13765;51.166;4.466;2023-03-11T07:38:24;2.40;99.90
25973;DHT22;13765;51.166;4.466;2023-03-11T07:40:57;2.50;99.90
25973;DHT22;13765;51.166;4.466;2023-03-11T07:43:23;2.60;99.90
25973;DHT22;13765;51.166;4.466;2023-03-11T07:45:49;2.70;99.90
25973;DHT22;13765;51.166;4.466;2023-03-11T07:48:16;2.70;99.90
25973;DHT22;13765;51.166;4.466;2023-03-11T07:50:46;2.60;99.90
25973;DHT22;13765;51.166;4.466;2023-03-11T07:53:14;2.70;99.90
25973;DHT22;13765;51.166;4.466;2023-03-11T07:55:42;2.60;99.90
25973;DHT22;13765;51.166;4.466;2023-03-11T07:58:08;2.60;99.90
25973;DHT22;13765;51.166;4.466;2023-03-11T08:00:33;2.70;99.90
25973;DHT22;13765;51.166;4.466;2023-03-11T08:02:59;2.70;99.90
25973;DHT22;13765;51.166;4.466;2023-03-11T08:05:25;2.80;99.90
25973;DHT22;13765;51.166;4.466;2023-03-11T08:07:50;2.90;99.90
25973;DHT22;13765;51.166;4.466;2023-03-11T08:10:18;3.10;99.90
25973;DHT22;13765;51.166;4.466;2023-03-11T08:12:44;3.10;99.90
25973;DHT22;13765;51.166;4.466;2023-03-11T08:15:11;3.20;99.90
25973;DHT22;13765;51.166;4.466;2023-03-11T08:17:37;3.20;99.90
25973;DHT22;13765;51.166;4.466;2023-03-11T08:20:03;3.40;99.90
25973;DHT22;13765;51.166;4.466;2023-03-11T08:22:33;3.50;99.90
25973;DHT22;13765;51.166;4.466;2023-03-11T08:24:58;3.70;99.90
25973;DHT22;13765;51.166;4.466;2023-03-11T08:27:27;3.70;99.90
25973;DHT22;13765;51.166;4.466;2023-03-11T08:29:53;3.80;99.90
25973;DHT22;13765;51.166;4.466;2023-03-11T08:32:18;4.00;99.90
25973;DHT22;13765;51.166;4.466;2023-03-11T08:34:46;4.20;99.90
25973;DHT22;13765;51.166;4.466;2023-03-11T08:37:14;4.50;99.90
25973;DHT22;13765;51.166;4.466;2023-03-11T08:39:42;4.70;99.90
25973;DHT22;13765;51.166;4.466;2023-03-11T08:42:10;4.80;99.90
25973;DHT22;13765;51.166;4.466;2023-03-11T08:44:38;4.90;99.90
25973;DHT22;13765;51.166;4.466;2023-03-11T08:47:04;5.00;99.90
25973;DHT22;13765;51.166;4.466;2023-03-11T08:49:29;5.10;99.90
25973;DHT22;13765;51.166;4.466;2023-03-11T08:51:57;5.30;99.90
25973;DHT22;13765;51.166;4.466;2023-03-11T08:54:23;5.30;99.90
25973;DHT22;13765;51.166;4.466;2023-03-11T08:56:51;5.40;99.90
25973;DHT22;13765;51.166;4.466;2023-03-11T08:59:17;5.40;99.90
25973;DHT22;13765;51.166;4.466;2023-03-11T09:01:45;5.50;99.90
25973;DHT22;13765;51.166;4.466;2023-03-11T09:04:11;5.60;99.90
25973;DHT22;13765;51.166;4.466;2023-03-11T09:06:43;5.60;99.90
25973;DHT22;13765;51.166;4.466;2023-03-11T09:09:14;5.80;99.90
25973;DHT22;13765;51.166;4.466;2023-03-11T09:11:47;5.80;99.90
25973;DHT22;13765;51.166;4.466;2023-03-11T09:14:16;6.20;99.90
25973;DHT22;13765;51.166;4.466;2023-03-11T09:16:41;6.50;99.90
25973;DHT22;13765;51.166;4.466;2023-03-11T09:19:07;6.80;99.90
25973;DHT22;13765;51.166;4.466;2023-03-11T09:21:33;7.00;99.90
25973;DHT22;13765;51.166;4.466;2023-03-11T09:24:00;7.40;99.90
25973;DHT22;13765;51.166;4.466;2023-03-11T09:26:29;7.80;99.90
25973;DHT22;13765;51.166;4.466;2023-03-11T09:28:57;8.10;99.90
25973;DHT22;13765;51.166;4.466;2023-03-11T09:31:25;8.30;99.90
25973;DHT22;13765;51.166;4.466;2023-03-11T09:33:50;8.20;99.90
25973;DHT22;13765;51.166;4.466;2023-03-11T09:36:20;8.10;99.90
25973;DHT22;13765;51.166;4.466;2023-03-11T09:38:47;7.90;99.90
25973;DHT22;13765;51.166;4.466;2023-03-11T09:52:18;8.70;99.90
25973;DHT22;13765;51.166;4.466;2023-03-11T09:54:50;8.70;99.90
25973;DHT22;13765;51.166;4.466;2023-03-11T09:57:37;8.80;99.90
25973;DHT22;13765;51.166;4.466;2023-03-11T10:00:05;8.70;99.90
25973;DHT22;13765;51.166;4.466;2023-03-11T10:02:38;8.50;99.90
25973;DHT22;13765;51.166;4.466;2023-03-11T10:05:17;8.40;99.90
25973;DHT22;13765;51.166;4.466;2023-03-11T10:07:51;8.30;99.90
25973;DHT22;13765;51.166;4.466;2023-03-11T10:10:20;8.20;99.90
25973;DHT22;13765;51.166;4.466;2023-03-11T10:19:54;8.80;99.90
25973;DHT22;13765;51.166;4.466;2023-03-11T10:25:08;9.50;99.90
25973;DHT22;13765;51.166;4.466;2023-03-11T10:27:42;9.30;99.90
25973;DHT22;13765;51.166;4.466;2023-03-11T10:33:01;9.40;99.90
25973;DHT22;13765;51.166;4.466;2023-03-11T10:35:45;9.40;99.90
25973;DHT22;13765;51.166;4.466;2023-03-11T10:38:20;9.60;99.90
25973;DHT22;13765;51.166;4.466;2023-03-11T10:40:49;10.00;99.90
25973;DHT22;13765;51.166;4.466;2023-03-11T10:43:20;10.10;99.90
25973;DHT22;13765;51.166;4.466;2023-03-11T10:45:47;10.30;99.90
25973;DHT22;13765;51.166;4.466;2023-03-11T10:48:18;10.50;99.90
25973;DHT22;13765;51.166;4.466;2023-03-11T10:50:56;10.10;99.90
25973;DHT22;13765;51.166;4.466;2023-03-11T10:53:25;10.10;99.90
25973;DHT22;13765;51.166;4.466;2023-03-11T10:55:56;10.00;99.90
25973;DHT22;13765;51.166;4.466;2023-03-11T10:58:29;10.10;99.90
25973;DHT22;13765;51.166;4.466;2023-03-11T11:01:16;10.10;99.90
25973;DHT22;13765;51.166;4.466;2023-03-11T11:03:44;10.00;99.90
25973;DHT22;13765;51.166;4.466;2023-03-11T11:06:36;9.80;99.90
25973;DHT22;13765;51.166;4.466;2023-03-11T11:09:19;9.80;99.90
25973;DHT22;13765;51.166;4.466;2023-03-11T11:12:04;10.00;99.90
25973;DHT22;13765;51.166;4.466;2023-03-11T11:14:49;10.20;99.90
25973;DHT22;13765;51.166;4.466;2023-03-11T11:17:23;10.10;99.90
25973;DHT22;13765;51.166;4.466;2023-03-11T11:19:53;10.00;99.90
25973;DHT22;13765;51.166;4.466;2023-03-11T11:22:24;10.00;99.90
25973;DHT22;13765;51.166;4.466;2023-03-11T11:24:55;9.50;99.90
25973;DHT22;13765;51.166;4.466;2023-03-11T11:27:25;9.70;99.90
25973;DHT22;13765;51.166;4.466;2023-03-11T11:32:33;10.10;99.90
25973;DHT22;13765;51.166;4.466;2023-03-11T11:35:01;10.30;99.90
25973;DHT22;13765;51.166;4.466;2023-03-11T11:37:34;10.30;99.90
25973;DHT22;13765;51.166;4.466;2023-03-11T11:45:43;10.30;99.90
25973;DHT22;13765;51.166;4.466;2023-03-11T11:48:19;10.40;99.90
25973;DHT22;13765;51.166;4.466;2023-03-11T11:50:51;10.60;99.90
25973;DHT22;13765;51.166;4.466;2023-03-11T11:56:04;9.60;99.90
25973;DHT22;13765;51.166;4.466;2023-03-11T11:58:30;9.40;99.90
25973;DHT22;13765;51.166;4.466;2023-03-11T12:06:04;9.90;99.90
25973;DHT22;13765;51.166;4.466;2023-03-11T12:11:50;9.70;99.90
25973;DHT22;13765;51.166;4.466;2023-03-11T12:19:36;10.10;99.90
25973;DHT22;13765;51.166;4.466;2023-03-11T12:30:27;10.40;99.90
25973;DHT22;13765;51.166;4.466;2023-03-11T12:33:01;10.60;99.90
25973;DHT22;13765;51.166;4.466;2023-03-11T12:35:33;10.60;99.90
25973;DHT22;13765;51.166;4.466;2023-03-11T12:43:26;10.40;99.90
25973;DHT22;13765;51.166;4.466;2023-03-11T12:45:58;10.50;99.90
25973;DHT22;13765;51.166;4.466;2023-03-11T12:50:52;10.40;99.90
25973;DHT22;13765;51.166;4.466;2023-03-11T12:53:19;10.40;99.90
25973;DHT22;13765;51.166;4.466;2023-03-11T13:08:08;10.40;99.90
25973;DHT22;13765;51.166;4.466;2023-03-11T13:10:40;10.80;99.90
25973;DHT22;13765;51.166;4.466;2023-03-11T13:15:52;10.80;99.90
25973;DHT22;13765;51.166;4.466;2023-03-11T13:18:26;10.50;99.90
25973;DHT22;13765;51.166;4.466;2023-03-11T13:21:00;10.70;99.90
25973;DHT22;13765;51.166;4.466;2023-03-11T13:23:37;10.70;99.90
25973;DHT22;13765;51.166;4.466;2023-03-11T13:26:30;10.60;99.90
25973;DHT22;13765;51.166;4.466;2023-03-11T13:37:12;10.90;99.90
25973;DHT22;13765;51.166;4.466;2023-03-11T13:42:54;11.10;99.90
25973;DHT22;13765;51.166;4.466;2023-03-11T13:45:32;10.70;99.90
25973;DHT22;13765;51.166;4.466;2023-03-11T13:50:45;10.40;99.90
25973;DHT22;13765;51.166;4.466;2023-03-11T13:53:29;9.90;99.90
25973;DHT22;13765;51.166;4.466;2023-03-11T13:55:58;10.10;99.90
25973;DHT22;13765;51.166;4.466;2023-03-11T13:58:27;10.20;99.90
25973;DHT22;13765;51.166;4.466;2023-03-11T14:01:00;10.10;99.90
25973;DHT22;13765;51.166;4.466;2023-03-11T14:03:31;10.30;99.90
25973;DHT22;13765;51.166;4.466;2023-03-11T14:06:04;10.40;99.90
25973;DHT22;13765;51.166;4.466;2023-03-11T14:08:40;10.20;99.90
25973;DHT22;13765;51.166;4.466;2023-03-11T14:16:07;9.50;99.90
25973;DHT22;13765;51.166;4.466;2023-03-11T14:18:42;9.40;99.90
25973;DHT22;13765;51.166;4.466;2023-03-11T14:21:16;9.50;99.90
25973;DHT22;13765;51.166;4.466;2023-03-11T14:23:48;9.10;99.90
25973;DHT22;13765;51.166;4.466;2023-03-11T14:26:29;8.80;99.90
25973;DHT22;13765;51.166;4.466;2023-03-11T14:29:00;8.90;99.90
25973;DHT22;13765;51.166;4.466;2023-03-11T14:31:36;9.20;99.90
25973;DHT22;13765;51.166;4.466;2023-03-11T14:34:14;9.10;99.90
25973;DHT22;13765;51.166;4.466;2023-03-11T14:36:51;9.30;99.90
25973;DHT22;13765;51.166;4.466;2023-03-11T14:39:37;9.70;99.90
25973;DHT22;13765;51.166;4.466;2023-03-11T14:50:19;10.10;99.90
25973;DHT22;13765;51.166;4.466;2023-03-11T14:55:56;10.50;99.90
25973;DHT22;13765;51.166;4.466;2023-03-11T15:03:25;10.30;99.90
25973;DHT22;13765;51.166;4.466;2023-03-11T15:05:53;10.50;99.90
25973;DHT22;13765;51.166;4.466;2023-03-11T15:08:23;10.70;99.90
25973;DHT22;13765;51.166;4.466;2023-03-11T15:11:04;10.80;99.90
25973;DHT22;13765;51.166;4.466;2023-03-11T15:13:34;10.70;99.90
25973;DHT22;13765;51.166;4.466;2023-03-11T15:16:03;10.70;99.90
25973;DHT22;13765;51.166;4.466;2023-03-11T15:18:33;10.70;99.90
25973;DHT22;13765;51.166;4.466;2023-03-11T15:24:00;10.20;99.90
25973;DHT22;13765;51.166;4.466;2023-03-11T15:26:34;10.20;99.90
25973;DHT22;13765;51.166;4.466;2023-03-11T15:29:22;10.10;99.90
25973;DHT22;13765;51.166;4.466;2023-03-11T15:31:49;10.10;99.90
25973;DHT22;13765;51.166;4.466;2023-03-11T15:39:24;10.10;99.90
25973;DHT22;13765;51.166;4.466;2023-03-11T15:42:02;10.00;99.90
25973;DHT22;13765;51.166;4.466;2023-03-11T15:44:35;9.90;99.90
25973;DHT22;13765;51.166;4.466;2023-03-11T15:47:02;9.90;99.90
25973;DHT22;13765;51.166;4.466;2023-03-11T15:49:31;9.80;99.90
25973;DHT22;13765;51.166;4.466;2023-03-11T15:52:03;9.50;99.90
25973;DHT22;13765;51.166;4.466;2023-03-11T15:54:31;9.40;99.90
25973;DHT22;13765;51.166;4.466;2023-03-11T15:56:58;9.20;99.90
25973;DHT22;13765;51.166;4.466;2023-03-11T15:59:28;9.10;99.90
25973;DHT22;13765;51.166;4.466;2023-03-11T16:01:54;9.10;99.90
25973;DHT22;13765;51.166;4.466;2023-03-11T16:04:23;9.00;99.90
25973;DHT22;13765;51.166;4.466;2023-03-11T16:06:48;8.90;99.90
25973;DHT22;13765;51.166;4.466;2023-03-11T16:09:15;8.60;99.90
25973;DHT22;13765;51.166;4.466;2023-03-11T16:11:43;8.60;99.90
25973;DHT22;13765;51.166;4.466;2023-03-11T16:14:16;8.50;99.90
25973;DHT22;13765;51.166;4.466;2023-03-11T16:16:43;8.70;99.90
25973;DHT22;13765;51.166;4.466;2023-03-11T16:19:11;8.60;99.90
25973;DHT22;13765;51.166;4.466;2023-03-11T16:21:43;8.60;99.90
25973;DHT22;13765;51.166;4.466;2023-03-11T16:24:22;8.70;99.90
25973;DHT22;13765;51.166;4.466;2023-03-11T16:26:49;8.80;99.90
25973;DHT22;13765;51.166;4.466;2023-03-11T16:29:16;8.90;99.90
25973;DHT22;13765;51.166;4.466;2023-03-11T16:31:42;8.90;99.90
25973;DHT22;13765;51.166;4.466;2023-03-11T16:34:12;8.80;99.90
25973;DHT22;13765;51.166;4.466;2023-03-11T16:36:38;8.80;99.90
25973;DHT22;13765;51.166;4.466;2023-03-11T16:39:08;8.70;99.90
25973;DHT22;13765;51.166;4.466;2023-03-11T16:41:40;8.70;99.90
25973;DHT22;13765;51.166;4.466;2023-03-11T16:44:06;8.70;99.90
25973;DHT22;13765;51.166;4.466;2023-03-11T16:46:32;8.70;99.90
25973;DHT22;13765;51.166;4.466;2023-03-11T16:48:58;8.70;99.90
25973;DHT22;13765;51.166;4.466;2023-03-11T16:51:23;8.60;99.90
25973;DHT22;13765;51.166;4.466;2023-03-11T16:53:52;8.60;99.90
25973;DHT22;13765;51.166;4.466;2023-03-11T16:56:20;8.50;99.90
25973;DHT22;13765;51.166;4.466;2023-03-11T16:58:49;8.50;99.90
25973;DHT22;13765;51.166;4.466;2023-03-11T17:01:15;8.40;99.90
25973;DHT22;13765;51.166;4.466;2023-03-11T17:03:46;8.40;99.90
25973;DHT22;13765;51.166;4.466;2023-03-11T17:06:17;8.40;99.90
25973;DHT22;13765;51.166;4.466;2023-03-11T17:08:43;8.40;99.90
25973;DHT22;13765;51.166;4.466;2023-03-11T17:11:15;8.30;99.90
25973;DHT22;13765;51.166;4.466;2023-03-11T17:13:43;8.30;99.90
25973;DHT22;13765;51.166;4.466;2023-03-11T17:16:11;8.20;99.90
25973;DHT22;13765;51.166;4.466;2023-03-11T17:18:39;8.20;99.90
25973;DHT22;13765;51.166;4.466;2023-03-11T17:21:09;8.20;99.90
25973;DHT22;13765;51.166;4.466;2023-03-11T17:23:36;8.10;99.90
25973;DHT22;13765;51.166;4.466;2023-03-11T17:26:09;7.90;99.90
25973;DHT22;13765;51.166;4.466;2023-03-11T17:28:36;7.90;99.90
25973;DHT22;13765;51.166;4.466;2023-03-11T17:31:04;7.80;99.90
25973;DHT22;13765;51.166;4.466;2023-03-11T17:33:32;7.70;99.90
25973;DHT22;13765;51.166;4.466;2023-03-11T17:36:05;7.70;99.90
25973;DHT22;13765;51.166;4.466;2023-03-11T17:38:31;7.70;99.90
25973;DHT22;13765;51.166;4.466;2023-03-11T17:40:57;7.60;99.90
25973;DHT22;13765;51.166;4.466;2023-03-11T17:43:25;7.60;99.90
25973;DHT22;13765;51.166;4.466;2023-03-11T17:45:51;7.50;99.90
25973;DHT22;13765;51.166;4.466;2023-03-11T17:48:16;7.50;99.90
25973;DHT22;13765;51.166;4.466;2023-03-11T17:50:42;7.40;99.90
25973;DHT22;13765;51.166;4.466;2023-03-11T17:53:13;7.40;99.90
25973;DHT22;13765;51.166;4.466;2023-03-11T17:55:41;7.30;99.90
25973;DHT22;13765;51.166;4.466;2023-03-11T17:58:09;7.20;99.90